Time;durP1;ratioP1;P1;durP2;ratioP2;P2;SDS_P1;SDS_P2;PMS_P1;PMS_P2;Temp;Humidity;BMP_temperature;BMP_pressure;BME280_temperature;BME280_humidity;BME280_pressure;Samples;Min_cycle;Max_cycle;Signal;HPM_P1;HPM_P2
2020/12/22 00:00:15;;;;;;;1.73;1.63;;;10.30;99.90;;;;;;4955492;28;20197;-74
2020/12/22 00:02:45;;;;;;;2.47;2.07;;;10.40;99.90;;;;;;4962366;28;20192;-74
2020/12/22 00:05:11;;;;;;;2.63;2.00;;;10.40;99.90;;;;;;4949644;28;20192;-73
2020/12/22 00:07:37;;;;;;;2.77;1.47;;;10.40;99.90;;;;;;4944946;28;20472;-73
2020/12/22 00:10:04;;;;;;;1.77;1.27;;;10.40;99.90;;;;;;4941779;28;20457;-74
2020/12/22 00:12:31;;;;;;;5.73;1.40;;;10.40;99.90;;;;;;4954214;28;20502;-73
2020/12/22 00:14:58;;;;;;;1.30;1.10;;;10.40;99.90;;;;;;4950952;28;20725;-74
2020/12/22 00:17:24;;;;;;;1.40;1.20;;;10.50;99.90;;;;;;4956287;28;22746;-74
2020/12/22 00:19:50;;;;;;;7.53;1.20;;;10.50;99.90;;;;;;4952933;28;20971;-74
2020/12/22 00:22:15;;;;;;;3.60;1.30;;;10.60;99.90;;;;;;4945436;28;20194;-73
2020/12/22 00:24:41;;;;;;;2.00;1.73;;;10.50;99.90;;;;;;4951099;28;20197;-74
2020/12/22 00:27:07;;;;;;;3.17;1.27;;;10.60;99.90;;;;;;4956229;28;20719;-74
2020/12/22 00:29:32;;;;;;;1.30;1.20;;;10.60;99.90;;;;;;4951226;28;21102;-74
2020/12/22 00:32:02;;;;;;;1.63;1.27;;;10.70;99.90;;;;;;4950793;28;20318;-74
2020/12/22 00:34:28;;;;;;;1.23;1.13;;;10.70;99.90;;;;;;4952397;28;20189;-73
2020/12/22 00:36:54;;;;;;;1.70;1.60;;;10.70;99.90;;;;;;4940987;28;20645;-74
2020/12/22 00:39:20;;;;;;;1.37;0.90;;;10.80;99.90;;;;;;4955314;28;20449;-74
2020/12/22 00:41:50;;;;;;;1.47;1.17;;;10.80;99.90;;;;;;4945096;28;20506;-74
2020/12/22 00:44:16;;;;;;;1.60;0.97;;;10.90;99.90;;;;;;4940744;28;20224;-74
2020/12/22 00:46:41;;;;;;;1.57;1.33;;;10.90;99.90;;;;;;4942979;28;20537;-74
2020/12/22 00:49:08;;;;;;;3.40;0.90;;;10.90;99.90;;;;;;4951988;28;20257;-74
2020/12/22 00:51:33;;;;;;;1.53;1.10;;;10.90;99.90;;;;;;4959439;28;20193;-74
2020/12/22 00:53:59;;;;;;;1.93;1.47;;;10.90;99.90;;;;;;4951218;28;20453;-74
2020/12/22 00:56:25;;;;;;;4.80;1.60;;;10.90;99.90;;;;;;4941412;28;20276;-73
2020/12/22 00:58:55;;;;;;;2.33;1.23;;;11.00;99.90;;;;;;4956060;28;20444;-74
2020/12/22 01:01:21;;;;;;;3.40;1.10;;;11.10;99.90;;;;;;4961124;28;20665;-73
2020/12/22 01:03:47;;;;;;;1.77;1.43;;;11.10;99.90;;;;;;4952582;28;20557;-73
2020/12/22 01:06:13;;;;;;;1.60;1.20;;;11.10;99.90;;;;;;4952464;28;20567;-74
2020/12/22 01:08:39;;;;;;;1.77;1.20;;;11.20;99.90;;;;;;4949941;28;20225;-73
2020/12/22 01:11:05;;;;;;;1.93;1.57;;;11.20;99.90;;;;;;4956005;28;20536;-74
2020/12/22 01:13:31;;;;;;;1.73;1.17;;;11.30;99.90;;;;;;4949917;28;20220;-74
2020/12/22 01:15:57;;;;;;;1.40;1.10;;;11.30;99.90;;;;;;4949171;28;20201;-74
2020/12/22 01:18:22;;;;;;;2.23;1.47;;;11.30;99.90;;;;;;4951806;28;20672;-74
2020/12/22 01:20:49;;;;;;;2.07;1.47;;;11.30;99.90;;;;;;4957362;28;20544;-75
2020/12/22 01:23:14;;;;;;;3.07;1.37;;;11.30;99.90;;;;;;4944091;28;20272;-74
2020/12/22 01:25:40;;;;;;;2.03;1.37;;;11.20;99.90;;;;;;4938911;28;20463;-74
2020/12/22 01:28:06;;;;;;;2.33;1.40;;;11.20;99.90;;;;;;4938747;28;21234;-75
2020/12/22 01:30:32;;;;;;;1.40;1.10;;;11.20;99.90;;;;;;4940746;28;20567;-75
2020/12/22 01:32:58;;;;;;;1.43;1.10;;;11.20;99.90;;;;;;4941825;28;20746;-74
2020/12/22 01:35:23;;;;;;;1.80;1.00;;;11.10;99.90;;;;;;4943276;28;20285;-75
2020/12/22 01:37:49;;;;;;;3.33;1.10;;;11.10;99.90;;;;;;4948351;28;20654;-74
2020/12/22 01:40:15;;;;;;;2.13;1.10;;;11.10;99.90;;;;;;4948362;28;20194;-74
2020/12/22 01:42:44;;;;;;;3.50;1.73;;;11.10;99.90;;;;;;4951563;28;20193;-75
2020/12/22 01:45:11;;;;;;;4.23;1.20;;;11.10;99.90;;;;;;4940036;28;20644;-75
2020/12/22 01:47:44;;;;;;;2.80;1.30;;;11.10;99.90;;;;;;4942852;28;20460;-74
2020/12/22 01:50:10;;;;;;;2.20;1.63;;;11.10;99.90;;;;;;4959570;28;20443;-74
2020/12/22 01:52:37;;;;;;;1.83;1.63;;;11.10;99.90;;;;;;4949772;28;20915;-74
2020/12/22 01:55:03;;;;;;;1.97;1.63;;;11.20;99.90;;;;;;4957139;28;20586;-74
2020/12/22 01:57:28;;;;;;;1.83;1.50;;;11.20;99.90;;;;;;4942511;28;20455;-74
2020/12/22 01:59:54;;;;;;;2.67;2.00;;;11.30;99.90;;;;;;4943541;28;20451;-74
2020/12/22 02:02:20;;;;;;;2.10;1.70;;;11.30;99.90;;;;;;4944427;28;20205;-74
2020/12/22 02:04:46;;;;;;;5.10;1.77;;;11.30;99.90;;;;;;4942464;28;20181;-74
2020/12/22 02:07:12;;;;;;;2.20;2.00;;;11.30;99.90;;;;;;4948392;28;20507;-74
2020/12/22 02:09:39;;;;;;;2.93;2.00;;;11.40;99.90;;;;;;4949195;28;21001;-74
2020/12/22 02:12:05;;;;;;;3.00;2.70;;;11.40;99.90;;;;;;4951300;28;20481;-74
2020/12/22 02:14:30;;;;;;;3.97;2.30;;;11.40;99.90;;;;;;4944429;28;20532;-74
2020/12/22 02:16:56;;;;;;;2.57;2.07;;;11.40;99.90;;;;;;4941038;28;20212;-74
2020/12/22 02:19:23;;;;;;;2.30;2.10;;;11.40;99.90;;;;;;4941683;28;20269;-74
2020/12/22 02:21:48;;;;;;;2.67;2.47;;;11.50;99.90;;;;;;4947895;28;20227;-74
2020/12/22 02:24:14;;;;;;;2.90;2.60;;;11.60;99.90;;;;;;4952004;28;20811;-75
2020/12/22 02:26:40;;;;;;;2.97;2.20;;;11.50;99.90;;;;;;4956107;28;20183;-74
2020/12/22 02:29:05;;;;;;;4.90;2.70;;;11.60;99.90;;;;;;4954966;28;20189;-74
2020/12/22 02:31:31;;;;;;;3.60;2.80;;;11.60;99.90;;;;;;4940678;28;20901;-74
2020/12/22 02:33:57;;;;;;;3.27;2.97;;;11.60;99.90;;;;;;4945815;28;20193;-75
2020/12/22 02:36:23;;;;;;;6.30;3.50;;;11.70;99.90;;;;;;4944143;28;20697;-75
2020/12/22 02:38:48;;;;;;;3.50;2.20;;;11.70;99.90;;;;;;4943587;28;20947;-75
2020/12/22 02:41:14;;;;;;;2.63;2.10;;;11.70;99.90;;;;;;4948829;28;20451;-74
2020/12/22 02:43:40;;;;;;;2.50;2.30;;;11.70;99.90;;;;;;4958519;28;20268;-74
2020/12/22 02:46:06;;;;;;;3.93;2.20;;;11.70;99.90;;;;;;4945406;28;20212;-74
2020/12/22 02:48:32;;;;;;;2.73;2.33;;;11.80;99.90;;;;;;4943172;28;20185;-74
2020/12/22 02:50:59;;;;;;;2.17;1.97;;;11.90;99.90;;;;;;4947857;28;20457;-74
2020/12/22 02:53:24;;;;;;;2.40;2.20;;;11.90;99.90;;;;;;4949687;28;20614;-74
2020/12/22 02:55:50;;;;;;;2.70;2.50;;;12.00;99.90;;;;;;4953402;28;21879;-74
2020/12/22 02:58:16;;;;;;;6.23;2.07;;;12.10;99.90;;;;;;4953737;28;20207;-74
2020/12/22 03:00:42;;;;;;;3.93;2.30;;;12.10;99.90;;;;;;4953584;28;20193;-74
2020/12/22 03:03:08;;;;;;;5.30;2.10;;;12.20;99.90;;;;;;4959588;28;20452;-74
2020/12/22 03:05:34;;;;;;;2.33;2.13;;;12.20;99.90;;;;;;4951817;28;20491;-74
2020/12/22 03:08:00;;;;;;;1.73;1.63;;;12.20;99.90;;;;;;4944820;28;20469;-74
2020/12/22 03:10:26;;;;;;;4.13;2.27;;;12.20;99.90;;;;;;4945196;28;20905;-74
2020/12/22 03:12:51;;;;;;;2.33;2.13;;;12.30;99.90;;;;;;4949733;28;20212;-74
2020/12/22 03:15:17;;;;;;;4.00;2.00;;;12.40;99.90;;;;;;4952871;28;20892;-74
2020/12/22 03:17:43;;;;;;;1.60;1.40;;;12.30;99.90;;;;;;4952033;28;20272;-74
2020/12/22 03:20:11;;;;;;;1.60;1.50;;;12.30;99.90;;;;;;4950230;28;20901;-74
2020/12/22 03:22:38;;;;;;;2.50;1.50;;;12.30;99.90;;;;;;4952029;28;20288;-74
2020/12/22 03:25:07;;;;;;;1.77;1.40;;;12.40;99.90;;;;;;4952078;28;20455;-74
2020/12/22 03:27:33;;;;;;;1.70;1.43;;;12.50;99.90;;;;;;4962068;28;20946;-74
2020/12/22 03:29:59;;;;;;;2.63;1.23;;;12.40;99.90;;;;;;4953522;28;20455;-74
2020/12/22 03:32:25;;;;;;;6.60;1.73;;;12.40;99.90;;;;;;4955566;28;20491;-74
2020/12/22 03:34:51;;;;;;;2.10;1.27;;;12.60;99.90;;;;;;4929902;28;20452;-74
2020/12/22 03:37:22;;;;;;;6.50;1.43;;;12.60;99.90;;;;;;4939594;28;20284;-74
2020/12/22 03:39:50;;;;;;;2.13;0.93;;;12.60;99.90;;;;;;4950327;28;20189;-74
2020/12/22 03:42:17;;;;;;;2.27;1.30;;;12.60;99.90;;;;;;4951193;28;20526;-73
2020/12/22 03:44:43;;;;;;;1.27;1.17;;;12.70;99.90;;;;;;4942906;28;20464;-74
2020/12/22 03:47:09;;;;;;;2.60;0.97;;;12.70;99.90;;;;;;4945132;28;21137;-74
2020/12/22 03:49:35;;;;;;;1.20;0.93;;;12.70;99.90;;;;;;4951781;28;20475;-74
2020/12/22 03:52:01;;;;;;;1.80;1.00;;;12.70;99.90;;;;;;4949048;28;20216;-73
2020/12/22 03:54:27;;;;;;;1.40;1.00;;;12.80;99.90;;;;;;4947220;28;20833;-73
2020/12/22 03:56:52;;;;;;;1.20;1.10;;;12.70;99.90;;;;;;4944152;28;20536;-73
2020/12/22 03:59:18;;;;;;;2.87;1.10;;;12.80;99.90;;;;;;4938365;28;22051;-74
2020/12/22 04:01:44;;;;;;;1.40;1.10;;;12.70;99.90;;;;;;4939128;28;20559;-74
2020/12/22 04:04:09;;;;;;;3.17;1.10;;;12.70;99.90;;;;;;4948993;28;20189;-74
2020/12/22 04:06:35;;;;;;;2.70;1.23;;;12.70;99.90;;;;;;4944613;28;20536;-74
2020/12/22 04:09:00;;;;;;;2.07;1.10;;;12.70;99.90;;;;;;4945327;28;20204;-74
2020/12/22 04:11:26;;;;;;;1.67;0.90;;;12.70;99.90;;;;;;4950150;28;20636;-74
2020/12/22 04:13:52;;;;;;;1.97;0.97;;;12.80;99.90;;;;;;4951428;28;20213;-74
2020/12/22 04:16:18;;;;;;;1.40;1.00;;;12.80;99.90;;;;;;4953349;28;20299;-74
2020/12/22 04:18:43;;;;;;;1.20;0.90;;;12.90;99.90;;;;;;4951285;28;20276;-73
2020/12/22 04:21:09;;;;;;;1.57;0.77;;;12.90;99.90;;;;;;4944389;28;20461;-73
2020/12/22 04:23:35;;;;;;;2.63;0.97;;;12.90;99.90;;;;;;4950450;28;20189;-73
2020/12/22 04:26:00;;;;;;;1.97;0.93;;;12.90;99.90;;;;;;4952942;28;20550;-74
2020/12/22 04:28:26;;;;;;;1.83;0.80;;;12.90;99.90;;;;;;4950271;28;20272;-73
2020/12/22 04:30:52;;;;;;;1.17;0.87;;;13.00;99.90;;;;;;4942301;28;20920;-73
2020/12/22 04:33:17;;;;;;;1.20;0.80;;;13.00;99.90;;;;;;4946752;28;20206;-74
2020/12/22 04:35:43;;;;;;;1.23;0.90;;;13.00;99.90;;;;;;4966849;28;20265;-73
2020/12/22 04:38:09;;;;;;;2.27;0.87;;;13.00;99.90;;;;;;4967638;28;20653;-74
2020/12/22 04:40:34;;;;;;;1.30;0.90;;;13.10;99.90;;;;;;4965345;28;20553;-74
2020/12/22 04:43:01;;;;;;;1.60;1.20;;;13.00;99.90;;;;;;4950561;28;20195;-74
2020/12/22 04:45:28;;;;;;;1.73;0.90;;;13.10;99.90;;;;;;4952826;28;20976;-74
2020/12/22 04:47:54;;;;;;;1.20;0.60;;;13.10;99.90;;;;;;4945290;28;20460;-74
2020/12/22 04:50:20;;;;;;;1.40;0.70;;;13.10;99.90;;;;;;4949232;28;20962;-73
2020/12/22 04:52:47;;;;;;;3.20;0.80;;;13.20;99.90;;;;;;4951106;28;20484;-73
2020/12/22 04:55:13;;;;;;;2.60;0.77;;;13.20;99.90;;;;;;4949154;28;20592;-74
2020/12/22 04:57:49;;;;;;;2.40;0.80;;;13.10;99.90;;;;;;4951575;28;20440;-73
2020/12/22 05:00:16;;;;;;;1.50;0.70;;;13.10;99.90;;;;;;4947521;28;20471;-74
2020/12/22 05:02:43;;;;;;;1.63;0.70;;;13.20;99.90;;;;;;4946127;28;20498;-74
2020/12/22 05:05:10;;;;;;;1.03;0.73;;;13.20;99.90;;;;;;4954982;28;20455;-74
2020/12/22 05:07:36;;;;;;;1.77;0.87;;;13.20;99.90;;;;;;4961388;28;20495;-73
2020/12/22 05:10:12;;;;;;;1.00;0.60;;;13.20;99.90;;;;;;4950810;28;21243;-74
2020/12/22 05:12:40;;;;;;;3.63;0.70;;;13.10;99.90;;;;;;4943955;28;20677;-73
2020/12/22 05:15:07;;;;;;;1.00;0.63;;;13.20;99.90;;;;;;4943068;28;20448;-74
2020/12/22 05:17:44;;;;;;;1.40;0.70;;;13.20;99.90;;;;;;4947435;28;20460;-73
2020/12/22 05:20:14;;;;;;;1.10;0.60;;;13.20;99.90;;;;;;4943261;28;20732;-73
2020/12/22 05:22:52;;;;;;;2.17;0.70;;;13.20;99.90;;;;;;4942261;28;21148;-73
2020/12/22 05:25:19;;;;;;;1.60;0.70;;;13.20;99.90;;;;;;4946547;28;20551;-74
2020/12/22 05:27:48;;;;;;;1.30;0.80;;;13.30;99.90;;;;;;4947322;28;20453;-74
2020/12/22 05:30:18;;;;;;;0.90;0.67;;;13.20;99.90;;;;;;4947797;28;20477;-73
2020/12/22 05:32:48;;;;;;;1.67;0.90;;;13.30;99.90;;;;;;4949272;28;21051;-73
2020/12/22 05:35:13;;;;;;;2.43;0.70;;;13.30;99.90;;;;;;4944710;28;20621;-73
2020/12/22 05:37:46;;;;;;;1.30;0.80;;;13.30;99.90;;;;;;4948371;28;20524;-74
2020/12/22 05:40:12;;;;;;;1.30;0.67;;;13.30;99.90;;;;;;4947971;28;20841;-73
2020/12/22 05:42:38;;;;;;;2.47;0.73;;;13.30;99.90;;;;;;4947666;28;20908;-73
2020/12/22 05:45:06;;;;;;;1.10;0.90;;;13.30;99.90;;;;;;4949142;28;20472;-74
2020/12/22 05:47:32;;;;;;;1.20;0.80;;;13.30;99.90;;;;;;4949548;28;20725;-74
2020/12/22 05:49:59;;;;;;;2.03;0.80;;;13.20;99.90;;;;;;4951363;28;20457;-73
2020/12/22 05:52:27;;;;;;;2.03;0.73;;;13.20;99.90;;;;;;4952828;28;20472;-73
2020/12/22 05:54:54;;;;;;;1.10;0.80;;;13.10;99.90;;;;;;4950178;28;20486;-74
2020/12/22 05:57:27;;;;;;;4.30;1.00;;;13.20;99.90;;;;;;4953036;28;20448;-74
2020/12/22 05:59:53;;;;;;;1.10;0.67;;;13.20;99.90;;;;;;4951870;28;20947;-74
2020/12/22 06:02:30;;;;;;;1.00;0.80;;;13.20;99.90;;;;;;4947343;28;20499;-73
2020/12/22 06:04:57;;;;;;;1.77;0.70;;;13.10;99.90;;;;;;4950279;28;20528;-73
2020/12/22 06:07:24;;;;;;;1.50;0.93;;;13.00;99.90;;;;;;4941160;28;20457;-73
2020/12/22 06:09:50;;;;;;;2.83;0.97;;;13.00;99.90;;;;;;4951647;28;20943;-73
2020/12/22 06:12:17;;;;;;;4.30;1.00;;;13.00;99.90;;;;;;4946659;28;20565;-73
2020/12/22 06:14:45;;;;;;;1.47;1.00;;;12.90;99.90;;;;;;4950941;28;20194;-73
2020/12/22 06:17:12;;;;;;;1.67;1.00;;;12.90;99.90;;;;;;4951257;28;20519;-73
2020/12/22 06:19:39;;;;;;;3.60;1.10;;;13.00;99.90;;;;;;4943235;28;20445;-74
2020/12/22 06:22:07;;;;;;;5.00;1.37;;;12.90;99.90;;;;;;4946953;28;20444;-73
2020/12/22 06:24:33;;;;;;;2.10;0.70;;;12.90;99.90;;;;;;4946243;28;20489;-73
2020/12/22 06:27:07;;;;;;;1.13;0.80;;;12.90;99.90;;;;;;4940169;28;20856;-74
2020/12/22 06:29:34;;;;;;;1.20;0.80;;;12.90;99.90;;;;;;4940225;28;20629;-74
2020/12/22 06:32:28;;;;;;;1.33;0.80;;;12.90;99.90;;;;;;4945859;28;20556;-73
2020/12/22 06:35:14;;;;;;;2.40;0.80;;;12.90;99.90;;;;;;4949159;28;20552;-73
2020/12/22 06:37:44;;;;;;;2.60;0.80;;;12.90;99.90;;;;;;4946882;28;20607;-73
2020/12/22 06:40:10;;;;;;;1.00;0.60;;;12.90;99.90;;;;;;4958607;28;20446;-73
2020/12/22 06:42:46;;;;;;;1.17;0.73;;;12.90;99.90;;;;;;4952093;28;20452;-73
2020/12/22 06:45:36;;;;;;;2.03;0.70;;;12.90;99.90;;;;;;4960620;28;21012;-75
2020/12/22 06:48:01;;;;;;;3.07;0.70;;;12.90;99.90;;;;;;4951236;28;20490;-74
2020/12/22 06:50:44;;;;;;;1.67;0.80;;;12.80;99.90;;;;;;4943738;28;20448;-74
2020/12/22 06:53:35;;;;;;;1.50;1.00;;;12.70;99.90;;;;;;4930223;28;20887;-74
2020/12/22 06:56:02;;;;;;;2.57;1.00;;;12.70;99.90;;;;;;4934575;28;20452;-74
2020/12/22 06:58:42;;;;;;;1.63;1.20;;;12.70;99.90;;;;;;4936124;28;20445;-74
2020/12/22 07:01:26;;;;;;;3.20;1.00;;;12.70;99.90;;;;;;4947967;28;21116;-74
2020/12/22 07:04:12;;;;;;;1.10;0.80;;;12.60;99.90;;;;;;4948757;28;20467;-75
2020/12/22 07:06:47;;;;;;;1.10;0.70;;;12.60;99.90;;;;;;4955295;28;20458;-74
2020/12/22 07:09:26;;;;;;;1.10;0.80;;;12.60;99.90;;;;;;4953982;28;20622;-74
2020/12/22 07:12:07;;;;;;;1.30;1.00;;;12.60;99.90;;;;;;4960455;28;23082;-74
2020/12/22 07:14:34;;;;;;;3.00;1.07;;;12.60;99.90;;;;;;4955825;28;20445;-74
2020/12/22 07:17:01;;;;;;;1.10;0.97;;;12.60;99.90;;;;;;4950910;28;20464;-74
2020/12/22 07:19:29;;;;;;;1.70;0.97;;;12.70;99.90;;;;;;4954481;28;20460;-73
2020/12/22 07:22:03;;;;;;;2.73;1.33;;;12.70;99.90;;;;;;4949540;28;20449;-73
2020/12/22 07:24:30;;;;;;;2.30;1.23;;;12.70;99.90;;;;;;4952632;28;20450;-74
2020/12/22 07:26:57;;;;;;;2.57;1.20;;;12.70;99.90;;;;;;4951292;28;20449;-73
2020/12/22 07:29:23;;;;;;;1.87;1.10;;;12.70;99.90;;;;;;4966699;28;20448;-73
2020/12/22 07:31:49;;;;;;;1.83;1.00;;;12.70;99.90;;;;;;4956048;28;20464;-73
2020/12/22 07:34:15;;;;;;;1.40;1.00;;;12.70;99.90;;;;;;4947543;28;20907;-74
2020/12/22 07:36:42;;;;;;;1.83;0.97;;;12.70;99.90;;;;;;4944707;28;20848;-74
2020/12/22 07:39:11;;;;;;;3.70;1.07;;;12.80;99.90;;;;;;4952736;28;20982;-74
2020/12/22 07:41:37;;;;;;;1.10;0.80;;;12.80;99.90;;;;;;4943582;28;20451;-74
2020/12/22 07:44:11;;;;;;;1.80;1.27;;;12.80;99.90;;;;;;4941389;28;20954;-74
2020/12/22 07:46:38;;;;;;;2.47;1.40;;;12.80;99.90;;;;;;4954816;28;20475;-74
2020/12/22 07:49:06;;;;;;;1.80;1.00;;;12.70;99.90;;;;;;4952504;28;20486;-73
2020/12/22 07:51:32;;;;;;;3.30;1.50;;;12.80;99.90;;;;;;4955186;28;20455;-74
2020/12/22 07:54:04;;;;;;;2.10;1.07;;;12.70;99.90;;;;;;4950296;28;21162;-74
2020/12/22 07:56:41;;;;;;;1.60;1.00;;;12.80;99.90;;;;;;4949558;28;21077;-73
2020/12/22 07:59:08;;;;;;;2.60;1.00;;;12.80;99.90;;;;;;4954793;28;20608;-73
2020/12/22 08:01:48;;;;;;;2.30;1.10;;;12.80;99.90;;;;;;4954608;28;20463;-73
2020/12/22 08:04:15;;;;;;;2.50;1.10;;;12.80;99.90;;;;;;4942535;28;20772;-74
2020/12/22 08:06:54;;;;;;;2.23;0.97;;;12.80;99.90;;;;;;4948552;28;20555;-74
2020/12/22 08:09:32;;;;;;;2.60;1.40;;;12.80;99.90;;;;;;4949417;28;20453;-73
2020/12/22 08:12:00;;;;;;;1.70;1.00;;;12.90;99.90;;;;;;4949522;28;20742;-74
2020/12/22 08:14:26;;;;;;;2.00;1.00;;;12.80;99.90;;;;;;4951375;28;20531;-73
2020/12/22 08:17:01;;;;;;;4.53;1.20;;;12.90;99.90;;;;;;4939706;28;24217;-73
2020/12/22 08:19:30;;;;;;;1.53;1.00;;;12.90;99.90;;;;;;4946152;28;20788;-73
2020/12/22 08:21:59;;;;;;;6.00;1.20;;;12.90;99.90;;;;;;4952638;28;21046;-72
2020/12/22 08:24:25;;;;;;;1.73;1.00;;;12.90;99.90;;;;;;4947282;28;20449;-73
2020/12/22 08:26:51;;;;;;;1.23;0.80;;;12.90;99.90;;;;;;4951221;28;20449;-73
2020/12/22 08:29:18;;;;;;;4.30;0.93;;;12.90;99.90;;;;;;4952904;28;21112;-73
2020/12/22 08:31:45;;;;;;;1.70;1.07;;;12.90;99.90;;;;;;4952652;28;20463;-73
2020/12/22 08:34:14;;;;;;;1.93;0.70;;;12.90;99.90;;;;;;4942643;28;20476;-73
2020/12/22 08:36:42;;;;;;;3.67;1.00;;;13.00;99.90;;;;;;4942162;28;20452;-73
2020/12/22 08:39:27;;;;;;;5.50;1.17;;;12.90;99.90;;;;;;4949445;28;21008;-74
2020/12/22 08:41:55;;;;;;;3.90;1.20;;;12.90;99.90;;;;;;4952635;28;20540;-73
2020/12/22 08:44:22;;;;;;;1.73;1.10;;;13.00;99.90;;;;;;4951115;28;21027;-73
2020/12/22 08:46:48;;;;;;;2.10;1.00;;;13.00;99.90;;;;;;4955378;28;21026;-73
2020/12/22 08:49:25;;;;;;;2.33;1.10;;;13.00;99.90;;;;;;4943294;28;20595;-73
2020/12/22 08:51:56;;;;;;;3.23;1.13;;;13.00;99.90;;;;;;4944080;28;20447;-73
2020/12/22 08:54:28;;;;;;;1.97;1.03;;;13.00;99.90;;;;;;4952248;28;20454;-73
2020/12/22 08:57:16;;;;;;;2.40;1.10;;;13.10;99.90;;;;;;4950988;28;20456;-73
2020/12/22 08:59:42;;;;;;;6.33;1.00;;;13.00;99.90;;;;;;4952230;28;21181;-74
2020/12/22 09:02:31;;;;;;;2.37;1.20;;;13.10;99.90;;;;;;4955335;28;20915;-73
2020/12/22 09:04:58;;;;;;;2.70;1.00;;;13.10;99.90;;;;;;4952291;28;20440;-73
2020/12/22 09:07:26;;;;;;;1.93;1.17;;;13.10;99.90;;;;;;4950406;28;20961;-73
2020/12/22 09:09:54;;;;;;;1.50;1.10;;;13.10;99.90;;;;;;4952074;28;20448;-73
2020/12/22 09:12:19;;;;;;;7.07;1.23;;;13.10;99.90;;;;;;4949345;28;20790;-73
2020/12/22 09:14:47;;;;;;;1.93;0.90;;;13.10;99.90;;;;;;4946628;28;20482;-73
2020/12/22 09:17:26;;;;;;;3.63;1.30;;;13.10;99.90;;;;;;4951549;28;20198;-73
2020/12/22 09:19:52;;;;;;;6.27;1.53;;;13.10;99.90;;;;;;4953098;28;20448;-73
2020/12/22 09:22:31;;;;;;;1.67;0.70;;;13.20;99.90;;;;;;4950992;28;20464;-73
2020/12/22 09:25:05;;;;;;;3.00;1.00;;;13.20;99.90;;;;;;4939699;28;20781;-73
2020/12/22 09:27:36;;;;;;;1.00;0.77;;;13.20;99.90;;;;;;4938460;28;20480;-73
2020/12/22 09:30:05;;;;;;;1.70;1.10;;;13.20;99.90;;;;;;4950298;28;20827;-73
2020/12/22 09:32:31;;;;;;;1.30;0.80;;;13.20;99.90;;;;;;4956202;28;20892;-73
2020/12/22 09:34:57;;;;;;;2.13;0.87;;;13.20;99.90;;;;;;4965319;28;20592;-73
2020/12/22 09:37:24;;;;;;;1.17;0.80;;;13.20;99.90;;;;;;4945271;28;20885;-73
2020/12/22 09:39:50;;;;;;;3.03;0.87;;;13.20;99.90;;;;;;4944352;28;20216;-73
2020/12/22 09:42:18;;;;;;;1.20;0.60;;;13.20;99.90;;;;;;4943890;28;20817;-73
2020/12/22 09:44:44;;;;;;;1.10;0.70;;;13.20;99.90;;;;;;4956131;28;20545;-73
2020/12/22 09:47:10;;;;;;;1.90;0.93;;;13.20;99.90;;;;;;4954255;28;20453;-73
2020/12/22 09:49:36;;;;;;;1.80;0.80;;;13.20;99.90;;;;;;4945947;28;20451;-73
2020/12/22 09:52:02;;;;;;;1.83;0.80;;;13.20;99.90;;;;;;4947079;28;20921;-73
2020/12/22 09:54:28;;;;;;;1.57;0.90;;;13.20;99.90;;;;;;4953959;28;20177;-73
2020/12/22 09:56:53;;;;;;;6.30;0.93;;;13.20;99.90;;;;;;4954580;28;20468;-72
2020/12/22 09:59:19;;;;;;;2.93;0.80;;;13.20;99.90;;;;;;4945815;28;20208;-73
2020/12/22 10:01:46;;;;;;;4.07;1.10;;;13.20;99.90;;;;;;4952043;28;20667;-73
2020/12/22 10:04:12;;;;;;;3.43;0.70;;;13.20;99.90;;;;;;4950287;28;20791;-73
2020/12/22 10:06:38;;;;;;;5.00;0.80;;;13.20;99.90;;;;;;4951677;28;21029;-73
2020/12/22 10:09:03;;;;;;;2.60;0.87;;;13.20;99.90;;;;;;4946019;28;20447;-73
2020/12/22 10:11:32;;;;;;;1.93;0.90;;;13.20;99.90;;;;;;4948523;28;20185;-74
2020/12/22 10:13:57;;;;;;;6.80;2.77;;;13.10;99.90;;;;;;4951245;28;21552;-73
2020/12/22 10:16:23;;;;;;;1.40;0.80;;;13.10;99.90;;;;;;4949121;28;20534;-73
2020/12/22 10:18:49;;;;;;;1.47;0.80;;;13.00;99.90;;;;;;4937910;28;20233;-74
2020/12/22 10:21:17;;;;;;;2.40;1.00;;;13.00;99.90;;;;;;4942467;28;20460;-73
2020/12/22 10:23:44;;;;;;;2.50;0.80;;;12.90;99.90;;;;;;4953595;28;20441;-73
2020/12/22 10:26:11;;;;;;;1.80;1.17;;;12.80;99.90;;;;;;4949519;28;20509;-74
2020/12/22 10:28:39;;;;;;;2.83;1.10;;;12.70;99.90;;;;;;4951861;28;20458;-73
2020/12/22 10:31:06;;;;;;;1.97;0.80;;;12.60;99.90;;;;;;4951528;28;20909;-73
2020/12/22 10:33:31;;;;;;;1.60;0.90;;;12.60;99.90;;;;;;4945389;28;20481;-74
2020/12/22 10:35:57;;;;;;;3.00;1.00;;;12.50;99.90;;;;;;4950104;28;20449;-75
2020/12/22 10:38:23;;;;;;;4.13;0.90;;;12.40;99.90;;;;;;4961773;28;20186;-73
2020/12/22 10:40:49;;;;;;;2.23;1.00;;;12.30;99.90;;;;;;4951810;28;20188;-74
2020/12/22 10:43:16;;;;;;;1.47;0.90;;;12.20;99.90;;;;;;4954247;28;20552;-74
2020/12/22 10:45:42;;;;;;;2.37;1.40;;;12.20;99.90;;;;;;4947508;28;20554;-74
2020/12/22 10:48:08;;;;;;;1.20;1.00;;;12.10;99.90;;;;;;4947364;28;21375;-73
2020/12/22 10:50:35;;;;;;;1.23;0.90;;;12.10;99.90;;;;;;4952279;28;21121;-74
2020/12/22 10:53:04;;;;;;;1.53;1.30;;;12.10;99.90;;;;;;4933252;28;21208;-74
2020/12/22 10:55:30;;;;;;;2.07;1.57;;;12.10;99.90;;;;;;4938339;28;20934;-74
2020/12/22 10:57:55;;;;;;;1.80;1.40;;;12.10;99.90;;;;;;4944573;28;20526;-73
2020/12/22 11:00:21;;;;;;;3.13;1.90;;;12.10;99.90;;;;;;4944058;28;20300;-73
2020/12/22 11:02:53;;;;;;;2.13;1.97;;;12.00;99.90;;;;;;4946004;28;20522;-73
2020/12/22 11:06:04;;;;;;;3.50;2.20;;;12.10;99.90;;;;;;4958916;28;20185;-73
2020/12/22 11:08:06;;;;;;;2.17;1.50;;;12.10;99.90;;;;;;4947538;28;20460;-73
2020/12/22 11:10:32;;;;;;;5.07;2.07;;;12.10;99.90;;;;;;4946699;28;20455;-73
2020/12/22 11:12:57;;;;;;;1.80;1.40;;;12.20;99.90;;;;;;4954227;28;20920;-73
2020/12/22 11:15:23;;;;;;;1.83;1.63;;;12.20;99.90;;;;;;4955571;28;20188;-74
2020/12/22 11:17:49;;;;;;;8.47;2.10;;;12.20;99.90;;;;;;4944969;28;20205;-73
2020/12/22 11:20:15;;;;;;;11.77;2.10;;;12.30;99.90;;;;;;4947441;28;21017;-74
2020/12/22 11:22:40;;;;;;;2.80;1.83;;;12.30;99.90;;;;;;4943825;28;20338;-74
2020/12/22 11:25:06;;;;;;;2.27;1.50;;;12.30;99.90;;;;;;4955441;28;20734;-74
2020/12/22 11:27:32;;;;;;;5.40;2.20;;;12.20;99.90;;;;;;4954436;28;20190;-74
2020/12/22 11:29:57;;;;;;;1.70;1.50;;;12.20;99.90;;;;;;4950740;28;20421;-74
2020/12/22 11:32:23;;;;;;;5.87;1.70;;;12.10;99.90;;;;;;4952063;28;20208;-74
2020/12/22 11:34:48;;;;;;;3.20;1.73;;;12.00;99.90;;;;;;4954960;28;20655;-73
2020/12/22 11:37:14;;;;;;;2.50;1.30;;;12.00;99.90;;;;;;4954842;28;20192;-73
2020/12/22 11:39:40;;;;;;;1.87;1.40;;;12.10;99.90;;;;;;4958850;28;20267;-73
2020/12/22 11:42:05;;;;;;;2.47;1.60;;;12.10;99.90;;;;;;4953775;28;20259;-73
2020/12/22 11:44:31;;;;;;;4.20;2.10;;;12.10;99.90;;;;;;4943036;28;20216;-74
2020/12/22 11:46:57;;;;;;;3.87;2.20;;;12.10;99.90;;;;;;4945008;28;20231;-73
2020/12/22 11:49:24;;;;;;;3.77;3.17;;;12.00;99.90;;;;;;4945538;28;20562;-73
2020/12/22 11:51:58;;;;;;;2.73;2.47;;;12.00;99.90;;;;;;4945895;28;20327;-74
2020/12/22 11:54:25;;;;;;;12.90;2.90;;;12.00;99.90;;;;;;4949057;28;20450;-74
2020/12/22 11:56:51;;;;;;;3.83;3.50;;;12.00;99.90;;;;;;4956244;28;20871;-73
2020/12/22 11:59:18;;;;;;;4.27;3.60;;;11.90;99.90;;;;;;4943983;28;20452;-73
2020/12/22 12:01:45;;;;;;;3.30;2.77;;;11.90;99.90;;;;;;4946487;28;20744;-74
2020/12/22 12:04:11;;;;;;;3.60;2.47;;;11.90;99.90;;;;;;4947939;28;20940;-74
2020/12/22 12:06:37;;;;;;;3.00;2.00;;;11.90;99.90;;;;;;4957420;28;20459;-73
2020/12/22 12:09:05;;;;;;;2.83;1.60;;;11.90;99.90;;;;;;4962248;28;20508;-74
2020/12/22 12:11:31;;;;;;;6.10;2.20;;;11.90;99.90;;;;;;4954516;28;20198;-74
2020/12/22 12:13:56;;;;;;;4.50;2.00;;;11.90;99.90;;;;;;4952367;28;20494;-73
2020/12/22 12:16:22;;;;;;;3.83;1.50;;;11.90;99.90;;;;;;4945618;28;20177;-74
2020/12/22 12:18:47;;;;;;;1.80;1.30;;;11.90;99.90;;;;;;4943084;28;20192;-73
2020/12/22 12:21:15;;;;;;;2.03;1.57;;;11.90;99.90;;;;;;4945780;28;20203;-73
2020/12/22 12:23:42;;;;;;;4.13;1.60;;;11.90;99.90;;;;;;4944716;28;20871;-74
2020/12/22 12:26:07;;;;;;;3.20;1.23;;;11.80;99.90;;;;;;4947586;28;20464;-74
2020/12/22 12:28:33;;;;;;;4.63;1.20;;;11.90;99.90;;;;;;4941840;28;21196;-73
2020/12/22 12:30:59;;;;;;;2.67;1.60;;;11.90;99.90;;;;;;4945145;28;20233;-73
2020/12/22 12:33:24;;;;;;;4.20;1.53;;;11.80;99.90;;;;;;4945093;28;20214;-73
2020/12/22 12:35:50;;;;;;;4.30;1.50;;;11.90;99.90;;;;;;4931487;28;20563;-73
2020/12/22 12:38:16;;;;;;;1.70;1.30;;;11.90;99.90;;;;;;4944262;28;20185;-74
2020/12/22 12:40:41;;;;;;;4.40;1.83;;;11.90;99.90;;;;;;4943062;28;20190;-73
2020/12/22 12:43:07;;;;;;;4.70;1.73;;;11.80;99.90;;;;;;4941751;28;20193;-73
2020/12/22 12:45:33;;;;;;;3.40;2.17;;;11.90;99.90;;;;;;4942957;28;20185;-74
2020/12/22 12:47:59;;;;;;;3.80;2.47;;;11.90;99.90;;;;;;4941982;28;20206;-73
2020/12/22 12:50:25;;;;;;;4.80;2.80;;;11.90;99.90;;;;;;4950605;28;20191;-73